sensor_id;sensor_type;location;lat;lon;timestamp;temperature;humidity
2459;DHT22;1241;50.920;6.936;2022-12-18T00:02:05;-4.40;99.90
2459;DHT22;1241;50.920;6.936;2022-12-18T00:04:31;-4.40;99.90
2459;DHT22;1241;50.920;6.936;2022-12-18T00:06:57;-4.40;99.90
2459;DHT22;1241;50.920;6.936;2022-12-18T00:09:23;-4.40;99.90
2459;DHT22;1241;50.920;6.936;2022-12-18T00:11:48;-4.40;99.90
2459;DHT22;1241;50.920;6.936;2022-12-18T00:14:14;-4.40;99.90
2459;DHT22;1241;50.920;6.936;2022-12-18T00:16:43;-4.40;99.90
2459;DHT22;1241;50.920;6.936;2022-12-18T00:19:10;-4.40;99.90
2459;DHT22;1241;50.920;6.936;2022-12-18T00:21:36;-4.40;99.90
2459;DHT22;1241;50.920;6.936;2022-12-18T00:24:11;-4.40;99.90
2459;DHT22;1241;50.920;6.936;2022-12-18T00:26:38;-4.40;99.90
2459;DHT22;1241;50.920;6.936;2022-12-18T00:29:12;-4.50;99.90
2459;DHT22;1241;50.920;6.936;2022-12-18T00:31:42;-4.50;99.90
2459;DHT22;1241;50.920;6.936;2022-12-18T00:34:10;-4.50;99.90
2459;DHT22;1241;50.920;6.936;2022-12-18T00:36:39;-4.40;99.90
2459;DHT22;1241;50.920;6.936;2022-12-18T00:39:05;-4.50;99.90
2459;DHT22;1241;50.920;6.936;2022-12-18T00:41:31;-4.50;99.90
2459;DHT22;1241;50.920;6.936;2022-12-18T00:44:17;-4.50;99.90
2459;DHT22;1241;50.920;6.936;2022-12-18T00:46:45;-4.50;99.90
2459;DHT22;1241;50.920;6.936;2022-12-18T00:49:13;-4.50;99.90
2459;DHT22;1241;50.920;6.936;2022-12-18T00:51:39;-4.50;99.90
2459;DHT22;1241;50.920;6.936;2022-12-18T00:54:05;-4.50;99.90
2459;DHT22;1241;50.920;6.936;2022-12-18T00:56:30;-4.60;99.90
2459;DHT22;1241;50.920;6.936;2022-12-18T00:58:56;-4.60;99.90
2459;DHT22;1241;50.920;6.936;2022-12-18T01:01:22;-4.60;99.90
2459;DHT22;1241;50.920;6.936;2022-12-18T01:03:48;-4.60;99.90
2459;DHT22;1241;50.920;6.936;2022-12-18T01:06:16;-4.50;99.90
2459;DHT22;1241;50.920;6.936;2022-12-18T01:08:42;-4.50;99.90
2459;DHT22;1241;50.920;6.936;2022-12-18T01:11:14;-4.40;99.90
2459;DHT22;1241;50.920;6.936;2022-12-18T01:13:40;-4.50;99.90
2459;DHT22;1241;50.920;6.936;2022-12-18T01:16:06;-4.50;99.90
2459;DHT22;1241;50.920;6.936;2022-12-18T01:18:34;-4.50;99.90
2459;DHT22;1241;50.920;6.936;2022-12-18T01:21:00;-4.50;99.90
2459;DHT22;1241;50.920;6.936;2022-12-18T01:23:26;-4.60;99.90
2459;DHT22;1241;50.920;6.936;2022-12-18T01:25:52;-4.50;99.90
2459;DHT22;1241;50.920;6.936;2022-12-18T01:28:17;-4.50;99.90
2459;DHT22;1241;50.920;6.936;2022-12-18T01:30:43;-4.50;99.90
2459;DHT22;1241;50.920;6.936;2022-12-18T01:33:09;-4.50;99.90
2459;DHT22;1241;50.920;6.936;2022-12-18T01:35:40;-4.50;99.90
2459;DHT22;1241;50.920;6.936;2022-12-18T01:38:07;-4.50;99.90
2459;DHT22;1241;50.920;6.936;2022-12-18T01:40:32;-4.50;99.90
2459;DHT22;1241;50.920;6.936;2022-12-18T01:42:58;-4.50;99.90
2459;DHT22;1241;50.920;6.936;2022-12-18T01:45:27;-4.50;99.90
2459;DHT22;1241;50.920;6.936;2022-12-18T01:48:02;-4.60;99.90
2459;DHT22;1241;50.920;6.936;2022-12-18T01:50:32;-4.50;99.90
2459;DHT22;1241;50.920;6.936;2022-12-18T01:53:12;-4.60;99.90
2459;DHT22;1241;50.920;6.936;2022-12-18T01:55:48;-4.60;99.90
2459;DHT22;1241;50.920;6.936;2022-12-18T01:58:15;-4.60;99.90
2459;DHT22;1241;50.920;6.936;2022-12-18T02:00:41;-4.60;99.90
2459;DHT22;1241;50.920;6.936;2022-12-18T02:03:07;-4.60;99.90
2459;DHT22;1241;50.920;6.936;2022-12-18T02:13:29;-4.70;99.90
2459;DHT22;1241;50.920;6.936;2022-12-18T02:16:00;-4.70;99.90
2459;DHT22;1241;50.920;6.936;2022-12-18T02:18:32;-4.70;99.90
2459;DHT22;1241;50.920;6.936;2022-12-18T02:21:23;-4.70;99.90
2459;DHT22;1241;50.920;6.936;2022-12-18T02:26:37;-4.70;99.90
2459;DHT22;1241;50.920;6.936;2022-12-18T02:29:09;-4.70;99.90
2459;DHT22;1241;50.920;6.936;2022-12-18T02:31:43;-4.70;99.90
2459;DHT22;1241;50.920;6.936;2022-12-18T02:34:11;-4.70;99.90
2459;DHT22;1241;50.920;6.936;2022-12-18T02:36:40;-4.70;99.90
2459;DHT22;1241;50.920;6.936;2022-12-18T02:39:09;-4.70;99.90
2459;DHT22;1241;50.920;6.936;2022-12-18T02:41:39;-4.70;99.90
2459;DHT22;1241;50.920;6.936;2022-12-18T02:44:10;-4.70;99.90
2459;DHT22;1241;50.920;6.936;2022-12-18T02:46:41;-4.60;99.90
2459;DHT22;1241;50.920;6.936;2022-12-18T02:58:03;-4.70;99.90
2459;DHT22;1241;50.920;6.936;2022-12-18T03:00:14;-4.70;99.90
2459;DHT22;1241;50.920;6.936;2022-12-18T03:02:53;-4.60;99.90
2459;DHT22;1241;50.920;6.936;2022-12-18T03:05:27;-4.60;99.90
2459;DHT22;1241;50.920;6.936;2022-12-18T03:08:03;-4.60;99.90
2459;DHT22;1241;50.920;6.936;2022-12-18T03:10:39;-4.70;99.90
2459;DHT22;1241;50.920;6.936;2022-12-18T03:13:16;-4.70;99.90
2459;DHT22;1241;50.920;6.936;2022-12-18T03:15:48;-4.70;99.90
2459;DHT22;1241;50.920;6.936;2022-12-18T03:18:21;-4.70;99.90
2459;DHT22;1241;50.920;6.936;2022-12-18T03:20:49;-4.70;99.90
2459;DHT22;1241;50.920;6.936;2022-12-18T03:23:24;-4.70;99.90
2459;DHT22;1241;50.920;6.936;2022-12-18T03:25:54;-4.80;99.90
2459;DHT22;1241;50.920;6.936;2022-12-18T03:28:23;-4.80;99.90
2459;DHT22;1241;50.920;6.936;2022-12-18T03:30:59;-4.80;99.90
2459;DHT22;1241;50.920;6.936;2022-12-18T03:33:31;-4.80;99.90
2459;DHT22;1241;50.920;6.936;2022-12-18T03:36:00;-4.90;99.90
2459;DHT22;1241;50.920;6.936;2022-12-18T03:38:27;-4.90;99.90
2459;DHT22;1241;50.920;6.936;2022-12-18T03:41:10;-4.90;99.90
2459;DHT22;1241;50.920;6.936;2022-12-18T03:44:09;-4.80;99.90
2459;DHT22;1241;50.920;6.936;2022-12-18T03:46:57;-4.80;99.90
2459;DHT22;1241;50.920;6.936;2022-12-18T03:52:23;-4.80;99.90
2459;DHT22;1241;50.920;6.936;2022-12-18T03:54:53;-4.80;99.90
2459;DHT22;1241;50.920;6.936;2022-12-18T03:57:24;-4.80;99.90
2459;DHT22;1241;50.920;6.936;2022-12-18T03:59:56;-4.90;99.90
2459;DHT22;1241;50.920;6.936;2022-12-18T04:02:27;-4.80;99.90
2459;DHT22;1241;50.920;6.936;2022-12-18T04:05:01;-4.90;99.90
2459;DHT22;1241;50.920;6.936;2022-12-18T04:07:28;-4.90;99.90
2459;DHT22;1241;50.920;6.936;2022-12-18T04:09:56;-4.90;99.90
2459;DHT22;1241;50.920;6.936;2022-12-18T04:12:29;-5.00;99.90
2459;DHT22;1241;50.920;6.936;2022-12-18T04:14:55;-5.00;99.90
2459;DHT22;1241;50.920;6.936;2022-12-18T04:17:21;-5.00;99.90
2459;DHT22;1241;50.920;6.936;2022-12-18T04:19:48;-5.00;99.90
2459;DHT22;1241;50.920;6.936;2022-12-18T04:22:14;-5.10;99.90
2459;DHT22;1241;50.920;6.936;2022-12-18T04:24:43;-5.10;99.90
2459;DHT22;1241;50.920;6.936;2022-12-18T04:27:16;-5.10;99.90
2459;DHT22;1241;50.920;6.936;2022-12-18T04:29:46;-5.10;99.90
2459;DHT22;1241;50.920;6.936;2022-12-18T04:32:13;-5.20;99.90
2459;DHT22;1241;50.920;6.936;2022-12-18T04:34:42;-5.20;99.90
2459;DHT22;1241;50.920;6.936;2022-12-18T04:37:08;-5.30;99.90
2459;DHT22;1241;50.920;6.936;2022-12-18T04:39:33;-5.30;99.90
2459;DHT22;1241;50.920;6.936;2022-12-18T04:42:05;-5.40;99.90
2459;DHT22;1241;50.920;6.936;2022-12-18T04:44:30;-5.30;99.90
2459;DHT22;1241;50.920;6.936;2022-12-18T04:46:56;-5.30;99.90
2459;DHT22;1241;50.920;6.936;2022-12-18T04:49:23;-5.40;99.90
2459;DHT22;1241;50.920;6.936;2022-12-18T04:51:48;-5.40;99.90
2459;DHT22;1241;50.920;6.936;2022-12-18T04:54:17;-5.40;99.90
2459;DHT22;1241;50.920;6.936;2022-12-18T04:56:46;-5.40;99.90
2459;DHT22;1241;50.920;6.936;2022-12-18T04:59:12;-5.40;99.90
2459;DHT22;1241;50.920;6.936;2022-12-18T05:01:38;-5.40;99.90
2459;DHT22;1241;50.920;6.936;2022-12-18T05:04:04;-5.50;99.90
2459;DHT22;1241;50.920;6.936;2022-12-18T05:06:30;-5.50;99.90
2459;DHT22;1241;50.920;6.936;2022-12-18T05:08:55;-5.50;99.90
2459;DHT22;1241;50.920;6.936;2022-12-18T05:11:21;-5.50;99.90
2459;DHT22;1241;50.920;6.936;2022-12-18T05:13:47;-5.50;99.90
2459;DHT22;1241;50.920;6.936;2022-12-18T05:16:14;-5.60;99.90
2459;DHT22;1241;50.920;6.936;2022-12-18T05:18:40;-5.60;99.90
2459;DHT22;1241;50.920;6.936;2022-12-18T05:21:06;-5.60;99.90
2459;DHT22;1241;50.920;6.936;2022-12-18T05:23:35;-5.60;99.90
2459;DHT22;1241;50.920;6.936;2022-12-18T05:26:03;-5.50;99.90
2459;DHT22;1241;50.920;6.936;2022-12-18T05:28:30;-5.60;99.90
2459;DHT22;1241;50.920;6.936;2022-12-18T05:30:59;-5.50;99.90
2459;DHT22;1241;50.920;6.936;2022-12-18T05:33:28;-5.50;99.90
2459;DHT22;1241;50.920;6.936;2022-12-18T05:35:55;-5.60;99.90
2459;DHT22;1241;50.920;6.936;2022-12-18T05:38:23;-5.50;99.90
2459;DHT22;1241;50.920;6.936;2022-12-18T05:40:50;-5.50;99.90
2459;DHT22;1241;50.920;6.936;2022-12-18T05:43:16;-5.50;99.90
2459;DHT22;1241;50.920;6.936;2022-12-18T05:45:42;-5.40;99.90
2459;DHT22;1241;50.920;6.936;2022-12-18T05:48:08;-5.40;99.90
2459;DHT22;1241;50.920;6.936;2022-12-18T05:50:35;-5.40;99.90
2459;DHT22;1241;50.920;6.936;2022-12-18T05:53:02;-5.30;99.90
2459;DHT22;1241;50.920;6.936;2022-12-18T05:55:28;-5.30;99.90
2459;DHT22;1241;50.920;6.936;2022-12-18T05:57:54;-5.30;99.90
2459;DHT22;1241;50.920;6.936;2022-12-18T06:00:20;-5.30;99.90
2459;DHT22;1241;50.920;6.936;2022-12-18T06:02:48;-5.30;99.90
2459;DHT22;1241;50.920;6.936;2022-12-18T06:05:14;-5.30;99.90
2459;DHT22;1241;50.920;6.936;2022-12-18T06:07:40;-5.30;99.90
2459;DHT22;1241;50.920;6.936;2022-12-18T06:10:06;-5.30;99.90
2459;DHT22;1241;50.920;6.936;2022-12-18T06:12:32;-5.20;99.90
2459;DHT22;1241;50.920;6.936;2022-12-18T06:14:59;-5.30;99.90
2459;DHT22;1241;50.920;6.936;2022-12-18T06:17:29;-5.20;99.90
2459;DHT22;1241;50.920;6.936;2022-12-18T06:19:55;-5.20;99.90
2459;DHT22;1241;50.920;6.936;2022-12-18T06:22:20;-5.30;99.90
2459;DHT22;1241;50.920;6.936;2022-12-18T06:24:46;-5.30;99.90
2459;DHT22;1241;50.920;6.936;2022-12-18T06:27:12;-5.30;99.90
2459;DHT22;1241;50.920;6.936;2022-12-18T06:29:38;-5.30;99.90
2459;DHT22;1241;50.920;6.936;2022-12-18T06:32:04;-5.30;99.90
2459;DHT22;1241;50.920;6.936;2022-12-18T06:34:29;-5.40;99.90
2459;DHT22;1241;50.920;6.936;2022-12-18T06:36:55;-5.40;99.90
2459;DHT22;1241;50.920;6.936;2022-12-18T06:39:21;-5.40;99.90
2459;DHT22;1241;50.920;6.936;2022-12-18T06:41:46;-5.40;99.90
2459;DHT22;1241;50.920;6.936;2022-12-18T06:44:12;-5.40;99.90
2459;DHT22;1241;50.920;6.936;2022-12-18T06:46:38;-5.40;99.90
2459;DHT22;1241;50.920;6.936;2022-12-18T06:49:04;-5.40;99.90
2459;DHT22;1241;50.920;6.936;2022-12-18T06:51:30;-5.50;99.90
2459;DHT22;1241;50.920;6.936;2022-12-18T06:53:56;-5.40;99.90
2459;DHT22;1241;50.920;6.936;2022-12-18T06:56:22;-5.50;99.90
2459;DHT22;1241;50.920;6.936;2022-12-18T06:58:47;-5.50;99.90
2459;DHT22;1241;50.920;6.936;2022-12-18T07:01:16;-5.50;99.90
2459;DHT22;1241;50.920;6.936;2022-12-18T07:03:42;-5.50;99.90
2459;DHT22;1241;50.920;6.936;2022-12-18T07:06:17;-5.60;99.90
2459;DHT22;1241;50.920;6.936;2022-12-18T07:08:44;-5.60;99.90
2459;DHT22;1241;50.920;6.936;2022-12-18T07:11:10;-5.60;99.90
2459;DHT22;1241;50.920;6.936;2022-12-18T07:13:36;-5.60;99.90
2459;DHT22;1241;50.920;6.936;2022-12-18T07:16:10;-5.60;99.90
2459;DHT22;1241;50.920;6.936;2022-12-18T07:18:36;-5.60;99.90
2459;DHT22;1241;50.920;6.936;2022-12-18T07:21:06;-5.60;99.90
2459;DHT22;1241;50.920;6.936;2022-12-18T07:23:33;-5.50;99.90
2459;DHT22;1241;50.920;6.936;2022-12-18T07:26:11;-5.50;99.90
2459;DHT22;1241;50.920;6.936;2022-12-18T07:28:39;-5.50;99.90
2459;DHT22;1241;50.920;6.936;2022-12-18T07:31:06;-5.40;99.90
2459;DHT22;1241;50.920;6.936;2022-12-18T07:33:33;-5.40;99.90
2459;DHT22;1241;50.920;6.936;2022-12-18T07:36:04;-5.40;99.90
2459;DHT22;1241;50.920;6.936;2022-12-18T07:38:30;-5.40;99.90
2459;DHT22;1241;50.920;6.936;2022-12-18T07:41:12;-5.40;99.90
2459;DHT22;1241;50.920;6.936;2022-12-18T07:43:39;-5.40;99.90
2459;DHT22;1241;50.920;6.936;2022-12-18T07:46:06;-5.40;99.90
2459;DHT22;1241;50.920;6.936;2022-12-18T07:48:32;-5.30;99.90
2459;DHT22;1241;50.920;6.936;2022-12-18T07:50:59;-5.30;99.90
2459;DHT22;1241;50.920;6.936;2022-12-18T07:53:24;-5.20;99.90
2459;DHT22;1241;50.920;6.936;2022-12-18T07:55:55;-5.20;99.90
2459;DHT22;1241;50.920;6.936;2022-12-18T07:58:21;-5.20;99.90
2459;DHT22;1241;50.920;6.936;2022-12-18T08:00:47;-5.20;99.90
2459;DHT22;1241;50.920;6.936;2022-12-18T08:03:12;-5.10;99.90
2459;DHT22;1241;50.920;6.936;2022-12-18T08:05:38;-5.10;99.90
2459;DHT22;1241;50.920;6.936;2022-12-18T08:08:04;-5.10;99.90
2459;DHT22;1241;50.920;6.936;2022-12-18T08:10:30;-5.00;99.90
2459;DHT22;1241;50.920;6.936;2022-12-18T08:12:55;-4.90;99.90
2459;DHT22;1241;50.920;6.936;2022-12-18T08:15:21;-4.80;99.90
2459;DHT22;1241;50.920;6.936;2022-12-18T08:17:46;-4.70;99.90
2459;DHT22;1241;50.920;6.936;2022-12-18T08:20:12;-4.70;99.90
2459;DHT22;1241;50.920;6.936;2022-12-18T08:22:41;-4.70;99.90
2459;DHT22;1241;50.920;6.936;2022-12-18T08:25:07;-4.70;99.90
2459;DHT22;1241;50.920;6.936;2022-12-18T08:27:33;-4.60;99.90
2459;DHT22;1241;50.920;6.936;2022-12-18T08:29:59;-4.60;99.90
2459;DHT22;1241;50.920;6.936;2022-12-18T08:32:25;-4.50;99.90
2459;DHT22;1241;50.920;6.936;2022-12-18T08:34:52;-4.50;99.90
2459;DHT22;1241;50.920;6.936;2022-12-18T08:37:17;-4.40;99.90
2459;DHT22;1241;50.920;6.936;2022-12-18T08:39:43;-4.40;99.90
2459;DHT22;1241;50.920;6.936;2022-12-18T08:42:09;-4.40;99.90
2459;DHT22;1241;50.920;6.936;2022-12-18T08:44:53;-4.30;99.90
2459;DHT22;1241;50.920;6.936;2022-12-18T08:47:19;-4.30;99.90
2459;DHT22;1241;50.920;6.936;2022-12-18T08:49:44;-4.20;99.90
2459;DHT22;1241;50.920;6.936;2022-12-18T08:52:10;-4.20;99.90
2459;DHT22;1241;50.920;6.936;2022-12-18T08:54:36;-4.10;99.90
2459;DHT22;1241;50.920;6.936;2022-12-18T08:57:02;-4.10;99.90
2459;DHT22;1241;50.920;6.936;2022-12-18T08:59:28;-3.90;99.90
2459;DHT22;1241;50.920;6.936;2022-12-18T09:01:54;-3.90;99.90
2459;DHT22;1241;50.920;6.936;2022-12-18T09:04:20;-3.80;99.90
2459;DHT22;1241;50.920;6.936;2022-12-18T09:06:46;-3.70;99.90
2459;DHT22;1241;50.920;6.936;2022-12-18T09:09:12;-3.70;99.90
2459;DHT22;1241;50.920;6.936;2022-12-18T09:11:38;-3.60;99.90
2459;DHT22;1241;50.920;6.936;2022-12-18T09:14:04;-3.60;99.90
2459;DHT22;1241;50.920;6.936;2022-12-18T09:16:30;-3.50;99.90
2459;DHT22;1241;50.920;6.936;2022-12-18T09:18:57;-3.40;99.90
2459;DHT22;1241;50.920;6.936;2022-12-18T09:21:28;-3.40;99.90
2459;DHT22;1241;50.920;6.936;2022-12-18T09:23:55;-3.40;99.90
2459;DHT22;1241;50.920;6.936;2022-12-18T09:26:22;-3.40;99.90
2459;DHT22;1241;50.920;6.936;2022-12-18T09:28:49;-3.30;99.90
2459;DHT22;1241;50.920;6.936;2022-12-18T09:31:16;-3.20;99.90
2459;DHT22;1241;50.920;6.936;2022-12-18T09:33:41;-3.00;99.90
2459;DHT22;1241;50.920;6.936;2022-12-18T09:36:09;-2.90;99.90
2459;DHT22;1241;50.920;6.936;2022-12-18T09:38:36;-2.80;99.90
2459;DHT22;1241;50.920;6.936;2022-12-18T09:43:58;-2.70;99.90
2459;DHT22;1241;50.920;6.936;2022-12-18T09:46:32;-2.60;99.90
2459;DHT22;1241;50.920;6.936;2022-12-18T09:49:02;-2.60;99.90
2459;DHT22;1241;50.920;6.936;2022-12-18T09:54:24;-2.50;99.90
2459;DHT22;1241;50.920;6.936;2022-12-18T09:56:51;-2.40;99.90
2459;DHT22;1241;50.920;6.936;2022-12-18T09:59:37;-2.20;99.90
2459;DHT22;1241;50.920;6.936;2022-12-18T10:02:24;-2.10;99.90
2459;DHT22;1241;50.920;6.936;2022-12-18T10:05:03;-2.00;99.90
2459;DHT22;1241;50.920;6.936;2022-12-18T10:07:43;-1.90;99.90
2459;DHT22;1241;50.920;6.936;2022-12-18T10:10:23;-2.10;99.90
2459;DHT22;1241;50.920;6.936;2022-12-18T10:16:03;-1.90;99.90
2459;DHT22;1241;50.920;6.936;2022-12-18T10:21:51;-1.70;99.90
2459;DHT22;1241;50.920;6.936;2022-12-18T10:26:17;-1.60;99.90
2459;DHT22;1241;50.920;6.936;2022-12-18T10:28:44;-1.50;99.90
2459;DHT22;1241;50.920;6.936;2022-12-18T10:31:22;-1.40;99.90
2459;DHT22;1241;50.920;6.936;2022-12-18T10:33:48;-1.30;99.90
2459;DHT22;1241;50.920;6.936;2022-12-18T10:36:14;-1.20;99.90
2459;DHT22;1241;50.920;6.936;2022-12-18T10:38:40;-1.20;99.90
2459;DHT22;1241;50.920;6.936;2022-12-18T10:41:24;-1.30;99.90
2459;DHT22;1241;50.920;6.936;2022-12-18T10:46:37;-1.10;99.90
2459;DHT22;1241;50.920;6.936;2022-12-18T10:49:02;-1.10;99.90
2459;DHT22;1241;50.920;6.936;2022-12-18T10:51:34;-1.00;99.90
2459;DHT22;1241;50.920;6.936;2022-12-18T10:54:06;-0.90;99.90
2459;DHT22;1241;50.920;6.936;2022-12-18T10:56:38;-0.90;99.90
2459;DHT22;1241;50.920;6.936;2022-12-18T10:59:06;-0.80;99.90
2459;DHT22;1241;50.920;6.936;2022-12-18T11:01:55;-0.70;99.90
2459;DHT22;1241;50.920;6.936;2022-12-18T11:07:03;-0.60;99.90
2459;DHT22;1241;50.920;6.936;2022-12-18T11:09:37;-0.50;99.90
2459;DHT22;1241;50.920;6.936;2022-12-18T11:12:16;-0.50;99.90
2459;DHT22;1241;50.920;6.936;2022-12-18T11:14:47;-0.60;99.90
2459;DHT22;1241;50.920;6.936;2022-12-18T11:17:25;-0.40;99.90
2459;DHT22;1241;50.920;6.936;2022-12-18T11:19:54;-0.40;99.90
2459;DHT22;1241;50.920;6.936;2022-12-18T11:22:41;-0.50;99.90
2459;DHT22;1241;50.920;6.936;2022-12-18T11:25:18;-0.50;99.90
2459;DHT22;1241;50.920;6.936;2022-12-18T11:28:05;-0.40;99.90
2459;DHT22;1241;50.920;6.936;2022-12-18T11:30:35;-0.40;99.90
2459;DHT22;1241;50.920;6.936;2022-12-18T11:33:21;-0.40;99.90
2459;DHT22;1241;50.920;6.936;2022-12-18T11:35:49;-0.40;99.90
2459;DHT22;1241;50.920;6.936;2022-12-18T11:38:24;-0.40;99.90
2459;DHT22;1241;50.920;6.936;2022-12-18T11:43:58;-0.30;99.90
2459;DHT22;1241;50.920;6.936;2022-12-18T11:46:37;-0.40;99.90
2459;DHT22;1241;50.920;6.936;2022-12-18T11:49:08;-0.50;99.90
2459;DHT22;1241;50.920;6.936;2022-12-18T11:51:52;-0.60;99.90
2459;DHT22;1241;50.920;6.936;2022-12-18T11:54:21;-0.60;99.90
2459;DHT22;1241;50.920;6.936;2022-12-18T11:56:51;-0.50;99.90
2459;DHT22;1241;50.920;6.936;2022-12-18T12:10:24;-0.30;99.90
2459;DHT22;1241;50.920;6.936;2022-12-18T12:21:15;-0.20;99.90
2459;DHT22;1241;50.920;6.936;2022-12-18T12:24:04;-0.20;99.90
2459;DHT22;1241;50.920;6.936;2022-12-18T12:29:31;-0.20;99.90
2459;DHT22;1241;50.920;6.936;2022-12-18T12:35:21;-0.40;99.90
2459;DHT22;1241;50.920;6.936;2022-12-18T12:40:35;-0.40;99.90
2459;DHT22;1241;50.920;6.936;2022-12-18T12:43:18;-0.40;99.90
2459;DHT22;1241;50.920;6.936;2022-12-18T12:45:57;-0.40;99.90
2459;DHT22;1241;50.920;6.936;2022-12-18T12:51:27;-0.30;99.90
2459;DHT22;1241;50.920;6.936;2022-12-18T12:53:56;-0.20;99.90
2459;DHT22;1241;50.920;6.936;2022-12-18T12:56:26;-0.30;99.90
2459;DHT22;1241;50.920;6.936;2022-12-18T12:59:02;-0.20;99.90
2459;DHT22;1241;50.920;6.936;2022-12-18T13:07:17;-0.20;99.90
2459;DHT22;1241;50.920;6.936;2022-12-18T13:10:12;-0.20;99.90
2459;DHT22;1241;50.920;6.936;2022-12-18T13:12:52;-0.30;99.90
2459;DHT22;1241;50.920;6.936;2022-12-18T13:20:41;-0.20;99.90
2459;DHT22;1241;50.920;6.936;2022-12-18T13:25:49;-0.20;99.90
2459;DHT22;1241;50.920;6.936;2022-12-18T13:28:17;-0.10;99.90
2459;DHT22;1241;50.920;6.936;2022-12-18T13:31:57;-0.10;99.90
2459;DHT22;1241;50.920;6.936;2022-12-18T13:36:41;-0.10;99.90
2459;DHT22;1241;50.920;6.936;2022-12-18T13:41:42;-0.10;99.90
2459;DHT22;1241;50.920;6.936;2022-12-18T13:44:22;-0.30;99.90
2459;DHT22;1241;50.920;6.936;2022-12-18T13:46:50;-0.20;99.90
2459;DHT22;1241;50.920;6.936;2022-12-18T13:49:22;-0.20;99.90
2459;DHT22;1241;50.920;6.936;2022-12-18T13:51:54;-0.10;99.90
2459;DHT22;1241;50.920;6.936;2022-12-18T13:56:55;-0.20;99.90
2459;DHT22;1241;50.920;6.936;2022-12-18T14:02:05;-0.20;99.90
2459;DHT22;1241;50.920;6.936;2022-12-18T14:04:35;-0.20;99.90
2459;DHT22;1241;50.920;6.936;2022-12-18T14:07:17;-0.20;99.90
2459;DHT22;1241;50.920;6.936;2022-12-18T14:09:47;-0.30;99.90
2459;DHT22;1241;50.920;6.936;2022-12-18T14:12:17;-0.40;99.90
2459;DHT22;1241;50.920;6.936;2022-12-18T14:15:05;-0.40;99.90
2459;DHT22;1241;50.920;6.936;2022-12-18T14:17:32;-0.50;99.90
2459;DHT22;1241;50.920;6.936;2022-12-18T14:19:58;-0.50;99.90
2459;DHT22;1241;50.920;6.936;2022-12-18T14:22:25;-0.50;99.90
2459;DHT22;1241;50.920;6.936;2022-12-18T14:25:28;-0.50;99.90
2459;DHT22;1241;50.920;6.936;2022-12-18T14:30:36;-0.50;99.90
2459;DHT22;1241;50.920;6.936;2022-12-18T14:33:16;-0.40;99.90
2459;DHT22;1241;50.920;6.936;2022-12-18T14:36:13;-0.30;99.90
2459;DHT22;1241;50.920;6.936;2022-12-18T14:38:43;-0.30;99.90
2459;DHT22;1241;50.920;6.936;2022-12-18T14:41:14;-0.40;99.90
2459;DHT22;1241;50.920;6.936;2022-12-18T14:43:42;-0.40;99.90
2459;DHT22;1241;50.920;6.936;2022-12-18T14:46:37;-0.50;99.90
2459;DHT22;1241;50.920;6.936;2022-12-18T14:51:49;-0.60;99.90
2459;DHT22;1241;50.920;6.936;2022-12-18T14:54:17;-0.60;99.90
2459;DHT22;1241;50.920;6.936;2022-12-18T14:59:38;-0.70;99.90
2459;DHT22;1241;50.920;6.936;2022-12-18T15:02:18;-0.70;99.90
2459;DHT22;1241;50.920;6.936;2022-12-18T15:04:46;-0.70;99.90
2459;DHT22;1241;50.920;6.936;2022-12-18T15:07:13;-0.70;99.90
2459;DHT22;1241;50.920;6.936;2022-12-18T15:12:36;-0.70;99.90
2459;DHT22;1241;50.920;6.936;2022-12-18T15:15:04;-0.80;99.90
2459;DHT22;1241;50.920;6.936;2022-12-18T15:17:30;-0.80;99.90
2459;DHT22;1241;50.920;6.936;2022-12-18T15:20:01;-0.80;99.90
2459;DHT22;1241;50.920;6.936;2022-12-18T15:22:30;-0.80;99.90
2459;DHT22;1241;50.920;6.936;2022-12-18T15:24:59;-0.90;99.90
2459;DHT22;1241;50.920;6.936;2022-12-18T15:27:33;-0.90;99.90
2459;DHT22;1241;50.920;6.936;2022-12-18T15:32:38;-0.90;99.90
2459;DHT22;1241;50.920;6.936;2022-12-18T15:35:22;-0.90;99.90
2459;DHT22;1241;50.920;6.936;2022-12-18T15:37:50;-0.90;99.90
2459;DHT22;1241;50.920;6.936;2022-12-18T15:40:20;-1.00;99.90
2459;DHT22;1241;50.920;6.936;2022-12-18T15:42:47;-1.00;99.90
2459;DHT22;1241;50.920;6.936;2022-12-18T15:45:32;-1.00;99.90
2459;DHT22;1241;50.920;6.936;2022-12-18T15:48:01;-1.10;99.90
2459;DHT22;1241;50.920;6.936;2022-12-18T15:50:30;-1.10;99.90
2459;DHT22;1241;50.920;6.936;2022-12-18T15:52:55;-1.10;99.90
2459;DHT22;1241;50.920;6.936;2022-12-18T15:55:23;-0.90;99.90
2459;DHT22;1241;50.920;6.936;2022-12-18T15:58:09;-0.80;99.90
2459;DHT22;1241;50.920;6.936;2022-12-18T16:00:38;-0.80;99.90
2459;DHT22;1241;50.920;6.936;2022-12-18T16:03:05;-0.90;99.90
2459;DHT22;1241;50.920;6.936;2022-12-18T16:05:31;-1.00;99.90
2459;DHT22;1241;50.920;6.936;2022-12-18T16:07:57;-1.10;99.90
2459;DHT22;1241;50.920;6.936;2022-12-18T16:10:25;-1.00;99.90
2459;DHT22;1241;50.920;6.936;2022-12-18T16:12:51;-1.10;99.90
2459;DHT22;1241;50.920;6.936;2022-12-18T16:15:17;-1.10;99.90
2459;DHT22;1241;50.920;6.936;2022-12-18T16:17:43;-1.10;99.90
2459;DHT22;1241;50.920;6.936;2022-12-18T16:20:14;-1.00;99.90
2459;DHT22;1241;50.920;6.936;2022-12-18T16:22:41;-1.10;99.90
2459;DHT22;1241;50.920;6.936;2022-12-18T16:25:22;-1.00;99.90
2459;DHT22;1241;50.920;6.936;2022-12-18T16:27:48;-1.00;99.90
2459;DHT22;1241;50.920;6.936;2022-12-18T16:30:16;-1.10;99.90
2459;DHT22;1241;50.920;6.936;2022-12-18T16:32:42;-1.10;99.90
2459;DHT22;1241;50.920;6.936;2022-12-18T16:35:10;-1.10;99.90
2459;DHT22;1241;50.920;6.936;2022-12-18T16:37:37;-1.10;99.90
2459;DHT22;1241;50.920;6.936;2022-12-18T16:40:03;-1.00;99.90
2459;DHT22;1241;50.920;6.936;2022-12-18T16:42:29;-1.00;99.90
2459;DHT22;1241;50.920;6.936;2022-12-18T16:44:54;-1.00;99.90
2459;DHT22;1241;50.920;6.936;2022-12-18T16:47:23;-1.00;99.90
2459;DHT22;1241;50.920;6.936;2022-12-18T16:49:49;-1.00;99.90
2459;DHT22;1241;50.920;6.936;2022-12-18T16:52:17;-1.00;99.90
2459;DHT22;1241;50.920;6.936;2022-12-18T16:54:43;-1.00;99.90
2459;DHT22;1241;50.920;6.936;2022-12-18T16:57:13;-1.00;99.90
2459;DHT22;1241;50.920;6.936;2022-12-18T16:59:40;-1.00;99.90
2459;DHT22;1241;50.920;6.936;2022-12-18T17:02:17;-1.00;99.90
2459;DHT22;1241;50.920;6.936;2022-12-18T17:04:43;-1.00;99.90
2459;DHT22;1241;50.920;6.936;2022-12-18T17:07:10;-1.00;99.90
2459;DHT22;1241;50.920;6.936;2022-12-18T17:09:36;-1.00;99.90
2459;DHT22;1241;50.920;6.936;2022-12-18T17:12:03;-1.00;99.90
2459;DHT22;1241;50.920;6.936;2022-12-18T17:14:28;-1.00;99.90
2459;DHT22;1241;50.920;6.936;2022-12-18T17:16:56;-1.00;99.90
2459;DHT22;1241;50.920;6.936;2022-12-18T17:19:26;-1.10;99.90
2459;DHT22;1241;50.920;6.936;2022-12-18T17:21:52;-1.10;99.90
2459;DHT22;1241;50.920;6.936;2022-12-18T17:24:18;-1.10;99.90
2459;DHT22;1241;50.920;6.936;2022-12-18T17:26:45;-1.10;99.90
2459;DHT22;1241;50.920;6.936;2022-12-18T17:29:17;-1.00;99.90
2459;DHT22;1241;50.920;6.936;2022-12-18T17:31:44;-1.00;99.90
2459;DHT22;1241;50.920;6.936;2022-12-18T17:34:11;-1.10;99.90
2459;DHT22;1241;50.920;6.936;2022-12-18T17:36:37;-1.10;99.90
2459;DHT22;1241;50.920;6.936;2022-12-18T17:39:06;-1.00;99.90
2459;DHT22;1241;50.920;6.936;2022-12-18T17:41:32;-1.10;99.90
2459;DHT22;1241;50.920;6.936;2022-12-18T17:44:03;-1.00;99.90
2459;DHT22;1241;50.920;6.936;2022-12-18T17:46:30;-1.00;99.90
2459;DHT22;1241;50.920;6.936;2022-12-18T17:48:58;-1.10;99.90
2459;DHT22;1241;50.920;6.936;2022-12-18T17:51:24;-1.10;99.90
2459;DHT22;1241;50.920;6.936;2022-12-18T17:53:50;-1.20;99.90
2459;DHT22;1241;50.920;6.936;2022-12-18T17:56:18;-1.20;99.90
2459;DHT22;1241;50.920;6.936;2022-12-18T17:58:44;-1.20;99.90
2459;DHT22;1241;50.920;6.936;2022-12-18T18:01:13;-1.20;99.90
2459;DHT22;1241;50.920;6.936;2022-12-18T18:03:39;-1.20;99.90
2459;DHT22;1241;50.920;6.936;2022-12-18T18:06:05;-1.20;99.90
2459;DHT22;1241;50.920;6.936;2022-12-18T18:08:33;-1.20;99.90
2459;DHT22;1241;50.920;6.936;2022-12-18T18:11:03;-1.20;99.90
2459;DHT22;1241;50.920;6.936;2022-12-18T18:13:49;-1.20;99.90